createdAt,value
2022-10-28T00:01:33.537Z,9.85
2022-10-28T00:04:03.521Z,9.57
2022-10-28T00:06:33.804Z,9.37
2022-10-28T00:09:05.530Z,9.45
2022-10-28T00:11:37.101Z,9.40
2022-10-28T00:14:08.335Z,9.50
2022-10-28T00:16:38.703Z,9.43
2022-10-28T00:19:13.091Z,9.65
2022-10-28T00:21:43.386Z,9.45
2022-10-28T00:24:14.639Z,9.80
2022-10-28T00:26:44.588Z,8.88
2022-10-28T00:29:15.492Z,8.50
2022-10-28T00:31:44.990Z,8.23
2022-10-28T00:34:18.555Z,9.03
2022-10-28T00:36:48.612Z,9.20
2022-10-28T00:39:20.471Z,8.50
2022-10-28T00:41:51.193Z,9.60
2022-10-28T00:44:53.040Z,9.68
2022-10-28T00:47:33.031Z,9.87
2022-10-28T00:50:12.855Z,9.10
2022-10-28T00:52:42.731Z,8.80
2022-10-28T00:55:12.204Z,9.20
2022-10-28T00:57:43.592Z,9.37
2022-10-28T01:00:14.217Z,8.77
2022-10-28T01:02:47.491Z,8.83
2022-10-28T01:05:21.797Z,8.57
2022-10-28T01:07:53.382Z,9.13
2022-10-28T01:10:37.796Z,8.30
2022-10-28T01:13:15.090Z,9.07
2022-10-28T01:15:51.722Z,11.13
2022-10-28T01:18:33.808Z,10.73
2022-10-28T01:21:30.524Z,10.93
2022-10-28T01:24:20.891Z,9.73
2022-10-28T01:27:13.302Z,8.43
2022-10-28T01:30:08.121Z,8.97
2022-10-28T01:32:59.626Z,8.50
2022-10-28T01:35:34.458Z,8.80
2022-10-28T01:38:23.502Z,8.17
2022-10-28T01:41:07.848Z,8.17
2022-10-28T01:43:42.361Z,9.10
2022-10-28T01:46:17.034Z,9.90
2022-10-28T01:48:52.199Z,9.70
2022-10-28T01:51:27.804Z,9.23
2022-10-28T01:54:01.093Z,9.70
2022-10-28T01:56:35.061Z,10.13
2022-10-28T01:59:06.521Z,8.87
2022-10-28T02:01:37.365Z,10.50
2022-10-28T02:04:07.413Z,9.50
2022-10-28T02:06:37.924Z,9.23
2022-10-28T02:09:29.186Z,12.00
2022-10-28T02:12:27.373Z,15.07
2022-10-28T02:15:17.916Z,16.30
2022-10-28T02:17:57.553Z,18.00
2022-10-28T02:20:35.940Z,15.73
2022-10-28T02:23:17.631Z,15.13
2022-10-28T02:25:53.457Z,13.73
2022-10-28T02:28:28.662Z,12.13
2022-10-28T02:31:04.379Z,12.90
2022-10-28T02:33:38.264Z,12.53
2022-10-28T02:36:12.434Z,9.97
2022-10-28T02:38:45.706Z,10.07
2022-10-28T02:41:21.506Z,10.47
2022-10-28T02:43:54.888Z,10.30
2022-10-28T02:46:27.984Z,9.63
2022-10-28T02:49:03.211Z,9.40
2022-10-28T02:51:38.733Z,9.03
2022-10-28T02:54:11.684Z,8.63
2022-10-28T02:56:46.825Z,9.80
2022-10-28T02:59:15.388Z,10.03
2022-10-28T03:01:44.066Z,9.53
2022-10-28T03:04:12.507Z,9.47
2022-10-28T03:06:42.140Z,10.07
2022-10-28T03:09:10.492Z,9.67
2022-10-28T03:11:38.829Z,9.53
2022-10-28T03:14:10.630Z,9.17
2022-10-28T03:16:41.573Z,9.40
2022-10-28T03:19:10.217Z,10.57
2022-10-28T03:21:38.855Z,9.27
2022-10-28T03:24:09.251Z,9.77
2022-10-28T03:26:37.544Z,9.00
2022-10-28T03:29:06.185Z,9.60
2022-10-28T03:31:34.843Z,9.10
2022-10-28T03:34:03.490Z,9.30
2022-10-28T03:36:32.114Z,8.63
2022-10-28T03:39:00.883Z,8.70
2022-10-28T03:41:30.562Z,8.77
2022-10-28T03:43:59.205Z,8.73
2022-10-28T03:46:29.103Z,9.37
2022-10-28T03:48:59.737Z,9.70
2022-10-28T03:51:28.363Z,9.10
2022-10-28T03:53:57.165Z,9.17
2022-10-28T03:56:25.447Z,9.03
2022-10-28T03:58:55.475Z,8.20
2022-10-28T04:01:23.968Z,8.90
2022-10-28T04:03:52.666Z,8.63
2022-10-28T04:06:21.253Z,8.93
2022-10-28T04:08:49.577Z,8.27
2022-10-28T04:11:17.889Z,8.10
2022-10-28T04:13:46.146Z,8.57
2022-10-28T04:16:15.748Z,9.20
2022-10-28T04:18:44.362Z,8.80
2022-10-28T04:21:13.049Z,8.00
2022-10-28T04:23:41.716Z,8.23
2022-10-28T04:26:10.352Z,7.67
2022-10-28T04:28:38.729Z,8.43
2022-10-28T04:31:07.473Z,8.43
2022-10-28T04:33:37.468Z,8.40
2022-10-28T04:36:06.508Z,8.00
2022-10-28T04:38:35.154Z,9.20
2022-10-28T04:41:03.859Z,9.73
2022-10-28T04:43:32.480Z,9.13
2022-10-28T04:46:05.819Z,8.77
2022-10-28T04:48:36.021Z,8.40
2022-10-28T04:51:05.259Z,7.07
2022-10-28T04:53:33.886Z,7.90
2022-10-28T04:56:02.652Z,7.30
2022-10-28T04:58:31.271Z,7.63
2022-10-28T05:00:59.593Z,6.60
2022-10-28T05:03:28.253Z,7.47
2022-10-28T05:05:58.214Z,7.83
2022-10-28T05:08:26.790Z,7.43
2022-10-28T05:10:55.825Z,7.33
2022-10-28T05:13:24.499Z,7.50
2022-10-28T05:15:53.180Z,7.40
2022-10-28T05:18:21.475Z,8.10
2022-10-28T05:20:54.671Z,7.97
2022-10-28T05:23:27.289Z,7.10
2022-10-28T05:25:58.294Z,6.53
2022-10-28T05:28:26.920Z,7.30
2022-10-28T05:30:55.563Z,7.63
2022-10-28T05:33:24.561Z,7.33
2022-10-28T05:35:53.306Z,6.93
2022-10-28T05:38:23.334Z,6.87
2022-10-28T05:40:51.948Z,6.70
2022-10-28T05:43:20.591Z,6.50
2022-10-28T05:45:54.167Z,7.23
2022-10-28T05:48:22.900Z,7.53
2022-10-28T05:50:51.504Z,8.40
2022-10-28T05:53:20.144Z,7.77
2022-10-28T05:55:49.760Z,8.20
2022-10-28T05:58:18.049Z,7.63
2022-10-28T06:00:46.688Z,9.33
2022-10-28T06:03:15.320Z,9.30
2022-10-28T06:05:45.939Z,11.00
2022-10-28T06:08:15.696Z,10.27
2022-10-28T06:10:55.533Z,8.30
2022-10-28T06:13:24.234Z,6.90
2022-10-28T06:15:53.313Z,6.90
2022-10-28T06:18:23.241Z,9.80
2022-10-28T06:20:53.698Z,11.73
2022-10-28T06:23:22.662Z,10.37
2022-10-28T06:28:26.613Z,10.17
2022-10-28T06:31:00.739Z,9.37
2022-10-28T06:33:29.422Z,8.13
2022-10-28T06:35:58.259Z,8.60
2022-10-28T06:38:28.183Z,9.70
2022-10-28T06:40:59.196Z,8.50
2022-10-28T06:43:28.175Z,8.97
2022-10-28T06:46:00.543Z,7.93
2022-10-28T06:48:30.719Z,8.30
2022-10-28T06:50:59.419Z,8.47
2022-10-28T06:53:28.071Z,9.13
2022-10-28T06:55:57.575Z,8.80
2022-10-28T06:58:27.840Z,8.60
2022-10-28T07:00:56.490Z,8.60
2022-10-28T07:03:25.243Z,9.47
2022-10-28T07:05:53.552Z,9.80
2022-10-28T07:08:21.924Z,9.80
2022-10-28T07:10:56.310Z,10.45
2022-10-28T07:13:26.730Z,10.00
2022-10-28T07:15:57.112Z,9.63
2022-10-28T07:18:27.015Z,11.07
2022-10-28T07:20:55.795Z,11.88
2022-10-28T07:23:24.375Z,10.93
2022-10-28T07:25:57.426Z,11.48
2022-10-28T07:28:28.716Z,11.93
2022-10-28T07:31:01.220Z,12.07
2022-10-28T07:33:29.954Z,10.90
2022-10-28T07:35:58.592Z,11.70
2022-10-28T07:38:27.570Z,11.48
2022-10-28T07:40:55.927Z,10.27
2022-10-28T07:43:25.990Z,9.65
2022-10-28T07:45:58.010Z,9.85
2022-10-28T07:48:26.938Z,9.65
2022-10-28T07:50:55.625Z,9.40
2022-10-28T07:53:27.727Z,9.70
2022-10-28T07:55:58.283Z,10.20
2022-10-28T07:58:28.623Z,9.60
2022-10-28T08:00:57.277Z,9.40
2022-10-28T08:03:34.563Z,10.18
2022-10-28T08:06:09.339Z,9.38
2022-10-28T08:08:38.462Z,9.43
2022-10-28T08:11:13.999Z,9.35
2022-10-28T08:13:44.283Z,8.10
2022-10-28T08:16:13.360Z,7.65
2022-10-28T08:18:42.147Z,6.95
2022-10-28T08:21:12.071Z,6.65
2022-10-28T08:23:41.459Z,6.68
2022-10-28T08:26:10.396Z,6.50
2022-10-28T08:28:39.014Z,6.72
2022-10-28T08:31:10.211Z,6.53
2022-10-28T08:33:40.243Z,6.75
2022-10-28T08:36:10.888Z,5.50
2022-10-28T08:38:45.144Z,6.07
2022-10-28T08:41:45.715Z,5.88
2022-10-28T08:44:53.282Z,5.95
2022-10-28T08:47:35.810Z,5.10
2022-10-28T08:50:12.784Z,5.22
2022-10-28T08:52:47.131Z,6.03
2022-10-28T08:55:22.828Z,5.60
2022-10-28T08:57:56.442Z,5.20
2022-10-28T09:00:28.420Z,5.40
2022-10-28T09:03:14.843Z,5.60
2022-10-28T09:05:45.683Z,6.13
2022-10-28T09:08:24.492Z,5.97
2022-10-28T09:11:17.169Z,5.13
2022-10-28T09:13:59.986Z,5.35
2022-10-28T09:16:37.083Z,4.97
2022-10-28T09:19:16.714Z,5.55
2022-10-28T09:21:52.028Z,4.90
2022-10-28T09:24:26.245Z,4.47
2022-10-28T09:27:07.790Z,4.45
2022-10-28T09:29:46.860Z,4.20
2022-10-28T09:32:24.470Z,4.13
2022-10-28T09:35:03.538Z,3.50
2022-10-28T09:37:39.089Z,3.90
2022-10-28T09:40:16.983Z,3.50
2022-10-28T09:43:00.449Z,3.78
2022-10-28T09:45:33.017Z,3.53
2022-10-28T09:48:07.113Z,3.10
2022-10-28T09:50:36.810Z,3.20
2022-10-28T09:53:16.188Z,3.50
2022-10-28T09:55:44.760Z,3.78
2022-10-28T09:58:14.869Z,3.70
2022-10-28T10:00:43.598Z,3.70
2022-10-28T10:03:12.331Z,3.50
2022-10-28T10:05:46.152Z,3.17
2022-10-28T10:08:18.396Z,3.55
2022-10-28T10:10:51.014Z,3.55
2022-10-28T10:13:25.050Z,3.47
2022-10-28T10:15:58.263Z,3.25
2022-10-28T10:18:32.787Z,3.33
2022-10-28T10:21:02.786Z,3.10
2022-10-28T10:23:33.998Z,3.53
2022-10-28T10:26:08.072Z,3.33
2022-10-28T10:28:46.210Z,3.78
2022-10-28T10:31:22.128Z,4.25
2022-10-28T10:33:53.841Z,3.95
2022-10-28T10:36:28.848Z,4.30
2022-10-28T10:39:00.173Z,3.47
2022-10-28T10:41:35.883Z,3.50
2022-10-28T10:44:24.845Z,3.05
2022-10-28T10:47:22.670Z,3.22
2022-10-28T10:49:52.136Z,3.03
2022-10-28T10:52:26.226Z,2.47
2022-10-28T10:55:07.646Z,2.42
2022-10-28T10:57:36.817Z,2.80
2022-10-28T11:00:06.690Z,2.63
2022-10-28T11:02:39.896Z,2.92
2022-10-28T11:05:11.459Z,2.30
2022-10-28T11:07:49.509Z,2.70
2022-10-28T11:10:27.092Z,2.83
2022-10-28T11:12:57.827Z,3.03
2022-10-28T11:15:29.776Z,2.67
2022-10-28T11:18:02.125Z,2.58
2022-10-28T11:20:44.017Z,3.00
2022-10-28T11:23:40.382Z,3.35
2022-10-28T11:26:14.675Z,2.80
2022-10-28T11:29:08.448Z,3.10
2022-10-28T11:32:07.789Z,2.83
2022-10-28T11:34:56.126Z,2.35
2022-10-28T11:37:42.561Z,3.00
2022-10-28T11:40:27.608Z,2.63
2022-10-28T11:43:12.424Z,2.65
2022-10-28T11:45:51.770Z,2.40
2022-10-28T11:48:40.617Z,2.80
2022-10-28T11:51:26.807Z,2.97
2022-10-28T11:54:32.639Z,2.67
2022-10-28T11:57:10.117Z,2.83
2022-10-28T12:00:00.436Z,2.47
2022-10-28T12:02:56.202Z,2.25
2022-10-28T12:05:32.776Z,2.60
2022-10-28T12:08:22.637Z,2.35
2022-10-28T12:11:12.996Z,3.03
2022-10-28T12:13:58.072Z,2.40
2022-10-28T12:16:36.641Z,2.85
2022-10-28T12:19:14.233Z,2.70
2022-10-28T12:21:50.952Z,2.78
2022-10-28T12:24:23.098Z,2.35
2022-10-28T12:26:57.245Z,2.88
2022-10-28T12:29:37.199Z,2.60
2022-10-28T12:32:11.541Z,2.85
2022-10-28T12:34:44.421Z,2.70
2022-10-28T12:37:21.706Z,2.50
2022-10-28T12:40:00.720Z,2.63
2022-10-28T12:42:35.149Z,2.90
2022-10-28T12:45:10.961Z,3.17
2022-10-28T12:47:46.627Z,2.92
2022-10-28T12:50:26.702Z,2.72
2022-10-28T12:53:07.580Z,2.97
2022-10-28T12:55:42.517Z,3.17
2022-10-28T12:58:16.709Z,2.58
2022-10-28T13:00:50.760Z,2.47
2022-10-28T13:03:19.567Z,2.50
2022-10-28T13:06:05.402Z,2.50
2022-10-28T13:08:50.540Z,2.55
2022-10-28T13:11:53.024Z,2.92
2022-10-28T13:14:58.019Z,2.60
2022-10-28T13:17:47.111Z,2.38
2022-10-28T13:20:39.617Z,2.58
2022-10-28T13:23:28.916Z,2.88
2022-10-28T13:26:24.128Z,2.33
2022-10-28T13:28:56.300Z,2.42
2022-10-28T13:31:41.465Z,2.67
2022-10-28T13:34:12.760Z,2.10
2022-10-28T13:36:43.427Z,2.58
2022-10-28T13:39:26.883Z,2.60
2022-10-28T13:42:28.621Z,2.60
2022-10-28T13:44:58.777Z,2.65
2022-10-28T13:47:31.671Z,2.20
2022-10-28T13:50:32.981Z,2.17
2022-10-28T13:53:46.462Z,2.47
2022-10-28T13:56:37.866Z,2.42
2022-10-28T13:59:18.229Z,2.60
2022-10-28T14:02:35.620Z,2.50
2022-10-28T14:05:09.114Z,2.22
2022-10-28T14:07:51.283Z,1.98
2022-10-28T14:10:26.119Z,2.70
2022-10-28T14:12:58.468Z,2.72
2022-10-28T14:15:30.557Z,2.65
2022-10-28T14:18:22.619Z,2.63
2022-10-28T14:21:01.600Z,2.78
2022-10-28T14:24:31.941Z,2.55
2022-10-28T14:27:31.739Z,2.35
2022-10-28T14:30:22.537Z,2.83
2022-10-28T14:33:22.345Z,2.60
2022-10-28T14:36:23.713Z,3.00
2022-10-28T14:39:16.880Z,2.60
2022-10-28T14:42:08.161Z,2.70
2022-10-28T14:45:04.332Z,2.85
2022-10-28T14:48:11.239Z,2.75
2022-10-28T14:50:45.032Z,2.92
2022-10-28T14:53:19.701Z,2.50
2022-10-28T14:55:59.715Z,2.50
2022-10-28T14:58:32.608Z,2.50
2022-10-28T15:01:19.825Z,2.60
2022-10-28T15:03:52.840Z,2.60
2022-10-28T15:06:37.414Z,2.70
2022-10-28T15:09:19.870Z,2.47
2022-10-28T15:11:55.919Z,3.00
2022-10-28T15:14:38.250Z,2.70
2022-10-28T15:17:15.474Z,2.78
2022-10-28T15:19:45.442Z,2.42
2022-10-28T15:22:17.915Z,2.47
2022-10-28T15:24:55.673Z,2.90
2022-10-28T15:27:27.099Z,2.90
2022-10-28T15:29:56.703Z,2.60
2022-10-28T15:32:33.628Z,2.72
2022-10-28T15:35:39.443Z,2.88
2022-10-28T15:38:31.924Z,2.97
2022-10-28T15:41:00.858Z,2.75
2022-10-28T15:43:31.927Z,2.83
2022-10-28T15:46:11.341Z,2.67
2022-10-28T15:48:39.917Z,2.70
2022-10-28T15:51:17.086Z,3.00
2022-10-28T15:53:46.214Z,2.83
2022-10-28T15:56:23.984Z,2.63
2022-10-28T15:59:16.861Z,2.50
2022-10-28T16:01:45.654Z,2.70
2022-10-28T16:04:42.149Z,2.88
2022-10-28T16:07:11.269Z,3.28
2022-10-28T16:09:46.970Z,3.42
2022-10-28T16:12:19.330Z,3.55
2022-10-28T16:14:54.918Z,4.88
2022-10-28T16:17:27.073Z,5.10
2022-10-28T16:19:58.248Z,4.03
2022-10-28T16:22:29.508Z,3.63
2022-10-28T16:24:58.516Z,3.45
2022-10-28T16:27:29.035Z,3.20
2022-10-28T16:29:59.345Z,3.42
2022-10-28T16:32:31.841Z,3.10
2022-10-28T16:35:02.837Z,3.20
2022-10-28T16:37:33.697Z,3.03
2022-10-28T16:40:02.367Z,3.03
2022-10-28T16:42:31.219Z,2.78
2022-10-28T16:45:00.909Z,3.08
2022-10-28T16:47:29.599Z,2.83
2022-10-28T16:49:58.280Z,3.05
2022-10-28T16:52:30.010Z,3.10
2022-10-28T16:54:59.230Z,3.22
2022-10-28T16:57:28.306Z,2.70
2022-10-28T16:59:57.172Z,2.95
2022-10-28T17:02:30.700Z,3.08
2022-10-28T17:05:00.930Z,2.70
2022-10-28T17:07:29.899Z,3.42
2022-10-28T17:09:58.544Z,3.00
2022-10-28T17:12:28.639Z,3.10
2022-10-28T17:14:57.398Z,3.28
2022-10-28T17:17:27.323Z,3.08
2022-10-28T17:19:55.992Z,3.10
2022-10-28T17:22:24.639Z,3.17
2022-10-28T17:24:54.497Z,3.30
2022-10-28T17:27:23.223Z,3.45
2022-10-28T17:29:52.061Z,4.10
2022-10-28T17:32:20.775Z,5.00
2022-10-28T17:34:50.934Z,4.47
2022-10-28T17:37:19.660Z,9.02
2022-10-28T17:39:48.298Z,26.52
2022-10-28T17:42:16.967Z,20.13
2022-10-28T17:44:45.592Z,7.60
2022-10-28T17:47:14.243Z,4.63
2022-10-28T17:49:42.876Z,4.20
2022-10-28T17:52:14.309Z,4.00
2022-10-28T17:54:42.954Z,3.92
2022-10-28T17:57:11.561Z,3.90
2022-10-28T17:59:40.229Z,3.58
2022-10-28T18:02:08.714Z,3.22
2022-10-28T18:04:37.183Z,3.13
2022-10-28T18:07:05.835Z,3.40
2022-10-28T18:09:35.934Z,3.78
2022-10-28T18:12:06.607Z,3.92
2022-10-28T18:14:34.899Z,3.58
2022-10-28T18:17:03.512Z,3.35
2022-10-28T18:19:31.747Z,3.20
2022-10-28T18:22:00.336Z,3.10
2022-10-28T18:24:28.918Z,3.08
2022-10-28T18:26:58.943Z,3.28
2022-10-28T18:29:27.308Z,3.40
2022-10-28T18:31:56.753Z,3.30
2022-10-28T18:34:25.448Z,3.83
2022-10-28T18:36:54.115Z,3.70
2022-10-28T18:39:22.708Z,3.40
2022-10-28T18:41:51.580Z,4.03
2022-10-28T18:44:26.962Z,3.65
2022-10-28T18:46:55.614Z,3.88
2022-10-28T18:49:24.263Z,3.55
2022-10-28T18:51:52.538Z,3.60
2022-10-28T18:54:20.798Z,4.55
2022-10-28T18:56:53.577Z,4.50
2022-10-28T18:59:25.293Z,4.32
2022-10-28T19:01:53.959Z,3.92
2022-10-28T19:04:22.721Z,4.10
2022-10-28T19:06:51.311Z,4.18
2022-10-28T19:09:19.902Z,4.10
2022-10-28T19:11:48.598Z,4.00
2022-10-28T19:14:17.443Z,4.40
2022-10-28T19:16:47.424Z,4.28
2022-10-28T19:19:15.711Z,4.30
2022-10-28T19:21:44.349Z,4.72
2022-10-28T19:24:13.112Z,4.32
2022-10-28T19:26:41.834Z,4.15
2022-10-28T19:29:11.323Z,4.18
2022-10-28T19:31:41.890Z,4.25
2022-10-28T19:34:11.837Z,3.53
2022-10-28T19:36:40.484Z,4.07
2022-10-28T19:39:09.130Z,4.68
2022-10-28T19:41:37.779Z,5.15
2022-10-28T19:44:06.685Z,4.60
2022-10-28T19:46:37.003Z,4.03
2022-10-28T19:49:07.589Z,4.53
2022-10-28T19:51:39.815Z,4.78
2022-10-28T19:54:11.916Z,4.90
2022-10-28T19:56:42.686Z,5.15
2022-10-28T19:59:11.336Z,5.00
2022-10-28T20:01:41.459Z,5.35
2022-10-28T20:04:11.389Z,4.85
2022-10-28T20:06:41.988Z,5.10
2022-10-28T20:09:10.679Z,5.00
2022-10-28T20:11:40.371Z,5.43
2022-10-28T20:14:12.390Z,5.18
2022-10-28T20:16:43.696Z,5.68
2022-10-28T20:19:12.586Z,7.00
2022-10-28T20:21:44.010Z,7.03
2022-10-28T20:24:12.481Z,8.55
2022-10-28T20:26:41.214Z,8.32
2022-10-28T20:29:10.071Z,8.02
2022-10-28T20:31:39.608Z,8.40
2022-10-28T20:34:09.131Z,7.20
2022-10-28T20:36:40.149Z,5.93
2022-10-28T20:39:15.246Z,5.90
2022-10-28T20:41:45.991Z,6.40
2022-10-28T20:44:14.833Z,5.18
2022-10-28T20:46:45.024Z,5.55
2022-10-28T20:49:13.875Z,5.15
2022-10-28T20:51:43.035Z,4.68
2022-10-28T20:54:12.728Z,5.25
2022-10-28T20:56:42.250Z,5.28
2022-10-28T20:59:11.150Z,5.68
2022-10-28T21:01:41.475Z,11.00
2022-10-28T21:04:12.414Z,8.48
2022-10-28T21:06:41.024Z,6.60
2022-10-28T21:09:11.801Z,6.57
2022-10-28T21:11:41.573Z,5.85
2022-10-28T21:14:10.395Z,5.85
2022-10-28T21:16:39.093Z,7.18
2022-10-28T21:19:07.408Z,5.93
2022-10-28T21:21:36.084Z,4.90
2022-10-28T21:24:04.951Z,4.65
2022-10-28T21:26:33.259Z,5.07
2022-10-28T21:29:03.252Z,4.68
2022-10-28T21:31:31.895Z,5.28
2022-10-28T21:34:02.996Z,4.55
2022-10-28T21:36:34.428Z,5.20
2022-10-28T21:39:03.064Z,4.95
2022-10-28T21:41:31.700Z,4.70
2022-10-28T21:44:00.399Z,4.72
2022-10-28T21:46:30.163Z,4.63
2022-10-28T21:48:58.966Z,4.25
2022-10-28T21:51:27.574Z,4.20
2022-10-28T21:53:56.130Z,4.60
2022-10-28T21:56:24.755Z,5.38
2022-10-28T21:58:53.396Z,7.88
2022-10-28T22:01:23.574Z,7.20
2022-10-28T22:03:55.541Z,6.43
2022-10-28T22:06:24.479Z,6.07
2022-10-28T22:08:55.009Z,5.90
2022-10-28T22:11:25.131Z,6.25
2022-10-28T22:13:58.576Z,6.28
2022-10-28T22:16:28.578Z,6.55
2022-10-28T22:19:00.103Z,6.25
2022-10-28T22:21:31.258Z,6.30
2022-10-28T22:24:00.291Z,6.05
2022-10-28T22:26:30.542Z,10.45
2022-10-28T22:28:59.462Z,11.20
2022-10-28T22:31:31.416Z,11.20
2022-10-28T22:34:02.214Z,8.52
2022-10-28T22:36:31.379Z,7.65
2022-10-28T22:39:00.181Z,5.30
2022-10-28T22:41:30.789Z,4.68
2022-10-28T22:44:01.727Z,4.20
2022-10-28T22:46:33.447Z,4.20
2022-10-28T22:49:03.413Z,4.40
2022-10-28T22:51:32.111Z,4.97
2022-10-28T22:54:00.532Z,4.97
2022-10-28T22:56:29.296Z,6.15
2022-10-28T22:59:00.505Z,6.07
2022-10-28T23:01:30.336Z,6.22
2022-10-28T23:04:00.971Z,5.88
2022-10-28T23:06:31.271Z,5.15
2022-10-28T23:08:59.882Z,5.20
2022-10-28T23:11:28.920Z,5.20
2022-10-28T23:13:57.604Z,5.03
2022-10-28T23:16:27.237Z,3.90
2022-10-28T23:18:56.043Z,4.55
2022-10-28T23:21:26.380Z,4.07
2022-10-28T23:23:57.459Z,4.50
2022-10-28T23:26:27.529Z,4.97
2022-10-28T23:28:58.066Z,5.18
2022-10-28T23:31:27.311Z,5.80
2022-10-28T23:33:56.501Z,5.20
2022-10-28T23:36:25.411Z,4.68
2022-10-28T23:38:56.919Z,4.97
2022-10-28T23:41:25.544Z,5.28
2022-10-28T23:43:54.155Z,5.22
2022-10-28T23:46:22.776Z,5.40
2022-10-28T23:48:51.125Z,4.00
2022-10-28T23:51:20.445Z,4.30
2022-10-28T23:53:49.097Z,4.30
2022-10-28T23:56:19.157Z,4.72
2022-10-28T23:58:47.578Z,4.78
